createdAt,value
2022-08-10T00:02:17.782Z,19.95
2022-08-10T00:04:44.371Z,19.83
2022-08-10T00:07:11.758Z,19.65
2022-08-10T00:09:49.997Z,19.49
2022-08-10T00:12:19.889Z,19.42
2022-08-10T00:14:47.068Z,19.41
2022-08-10T00:17:13.803Z,19.39
2022-08-10T00:20:04.205Z,19.38
2022-08-10T00:22:27.389Z,19.31
2022-08-10T00:24:57.547Z,19.29
2022-08-10T00:27:51.871Z,19.27
2022-08-10T00:30:13.132Z,19.21
2022-08-10T00:32:39.746Z,19.17
2022-08-10T00:35:06.688Z,19.10
2022-08-10T00:37:33.478Z,19.06
2022-08-10T00:40:00.414Z,18.98
2022-08-10T00:42:27.283Z,18.93
2022-08-10T00:44:54.355Z,18.89
2022-08-10T00:47:36.787Z,18.83
2022-08-10T00:50:07.075Z,18.78
2022-08-10T00:52:35.222Z,18.77
2022-08-10T00:55:05.686Z,18.57
2022-08-10T00:57:34.167Z,18.60
2022-08-10T01:00:01.145Z,18.52
2022-08-10T01:02:30.076Z,18.49
2022-08-10T01:05:01.734Z,18.45
2022-08-10T01:07:50.436Z,18.37
2022-08-10T01:10:17.234Z,18.11
2022-08-10T01:12:59.135Z,18.08
2022-08-10T01:15:39.081Z,18.04
2022-08-10T01:18:08.687Z,18.03
2022-08-10T01:20:43.387Z,17.96
2022-08-10T01:23:28.895Z,17.91
2022-08-10T01:26:31.510Z,17.85
2022-08-10T01:29:13.794Z,17.80
2022-08-10T01:31:49.968Z,17.76
2022-08-10T01:34:22.451Z,17.74
2022-08-10T01:37:03.098Z,17.69
2022-08-10T01:39:36.847Z,17.67
2022-08-10T01:42:05.450Z,17.61
2022-08-10T01:44:45.039Z,17.57
2022-08-10T01:47:34.851Z,17.61
2022-08-10T01:50:14.196Z,17.59
2022-08-10T01:52:45.226Z,17.54
2022-08-10T01:55:14.115Z,17.48
2022-08-10T01:57:43.447Z,17.43
2022-08-10T02:00:11.968Z,17.36
2022-08-10T02:02:42.468Z,17.34
2022-08-10T02:05:10.621Z,17.27
2022-08-10T02:07:40.719Z,17.21
2022-08-10T02:10:11.575Z,17.18
2022-08-10T02:12:40.829Z,17.08
2022-08-10T02:15:11.408Z,16.99
2022-08-10T02:17:57.571Z,16.88
2022-08-10T02:20:32.184Z,16.83
2022-08-10T02:23:04.736Z,16.82
2022-08-10T02:25:42.486Z,16.82
2022-08-10T02:28:29.812Z,16.81
2022-08-10T02:31:06.978Z,16.77
2022-08-10T02:33:56.264Z,16.74
2022-08-10T02:36:27.910Z,16.74
2022-08-10T02:39:00.977Z,16.74
2022-08-10T02:45:03.292Z,16.67
2022-08-10T02:45:31.682Z,16.62
2022-08-10T02:48:07.561Z,16.58
2022-08-10T02:50:40.219Z,16.57
2022-08-10T02:53:54.290Z,16.52
2022-08-10T02:56:10.359Z,16.48
2022-08-10T02:59:06.906Z,16.43
2022-08-10T03:01:37.175Z,16.41
2022-08-10T03:04:11.938Z,16.36
2022-08-10T03:06:43.640Z,16.36
2022-08-10T03:09:15.201Z,16.35
2022-08-10T03:12:37.159Z,16.38
2022-08-10T03:14:34.175Z,16.38
2022-08-10T03:17:02.487Z,16.33
2022-08-10T03:20:36.032Z,16.16
2022-08-10T03:22:18.391Z,16.15
2022-08-10T03:24:46.184Z,16.14
2022-08-10T03:27:16.014Z,16.07
2022-08-10T03:30:31.706Z,16.02
2022-08-10T03:32:33.470Z,15.94
2022-08-10T03:35:00.752Z,15.92
2022-08-10T03:37:30.113Z,15.89
2022-08-10T03:39:57.239Z,15.91
2022-08-10T03:42:26.656Z,15.87
2022-08-10T03:44:57.704Z,15.81
2022-08-10T03:47:27.049Z,15.81
2022-08-10T03:49:55.745Z,15.77
2022-08-10T03:52:22.816Z,15.70
2022-08-10T03:54:51.684Z,15.62
2022-08-10T03:57:18.824Z,15.59
2022-08-10T03:59:45.523Z,15.57
2022-08-10T04:02:45.529Z,15.52
2022-08-10T04:04:59.755Z,15.47
2022-08-10T04:07:27.211Z,15.44
2022-08-10T04:09:56.163Z,15.38
2022-08-10T04:12:26.091Z,15.35
2022-08-10T04:14:53.746Z,15.32
2022-08-10T04:18:03.693Z,15.30
2022-08-10T04:20:35.213Z,15.32
2022-08-10T04:23:06.567Z,15.30
2022-08-10T04:25:34.729Z,15.28
2022-08-10T04:28:03.298Z,15.25
2022-08-10T04:30:32.055Z,15.21
2022-08-10T04:33:02.378Z,15.17
2022-08-10T04:35:30.154Z,15.16
2022-08-10T04:37:58.231Z,15.15
2022-08-10T04:40:29.092Z,15.15
2022-08-10T04:43:02.235Z,15.16
2022-08-10T04:45:47.312Z,15.16
2022-08-10T04:48:43.427Z,15.10
2022-08-10T04:51:06.207Z,15.01
2022-08-10T04:53:34.175Z,15.09
2022-08-10T04:56:21.346Z,15.08
2022-08-10T04:58:58.552Z,15.07
2022-08-10T05:01:25.450Z,15.04
2022-08-10T05:04:35.285Z,15.02
2022-08-10T05:06:39.051Z,14.99
2022-08-10T05:09:05.743Z,14.98
2022-08-10T05:11:32.451Z,14.97
2022-08-10T05:13:59.277Z,14.95
2022-08-10T05:16:31.597Z,14.96
2022-08-10T05:18:59.397Z,14.96
2022-08-10T05:22:03.571Z,14.96
2022-08-10T05:24:15.631Z,14.93
2022-08-10T05:27:00.333Z,14.93
2022-08-10T05:29:29.495Z,14.95
2022-08-10T05:31:56.715Z,15.01
2022-08-10T05:34:30.348Z,15.06
2022-08-10T05:36:58.000Z,15.12
2022-08-10T05:39:31.995Z,15.15
2022-08-10T05:42:01.345Z,15.19
2022-08-10T05:44:29.317Z,15.26
2022-08-10T05:46:56.246Z,15.30
2022-08-10T05:49:23.083Z,15.33
2022-08-10T05:51:50.040Z,15.39
2022-08-10T05:54:17.249Z,15.45
2022-08-10T05:56:55.828Z,15.50
2022-08-10T06:00:33.200Z,15.53
2022-08-10T06:02:30.915Z,15.58
2022-08-10T06:05:21.517Z,15.60
2022-08-10T06:07:53.053Z,15.68
2022-08-10T06:10:32.789Z,15.71
2022-08-10T06:13:30.694Z,15.75
2022-08-10T06:16:05.774Z,15.79
2022-08-10T06:18:32.955Z,15.87
2022-08-10T06:21:00.965Z,15.91
2022-08-10T06:23:30.874Z,15.96
2022-08-10T06:26:12.269Z,16.00
2022-08-10T06:29:03.288Z,16.11
2022-08-10T06:31:47.877Z,16.19
2022-08-10T06:34:20.558Z,16.30
2022-08-10T06:36:48.303Z,16.37
2022-08-10T06:39:33.035Z,16.47
2022-08-10T06:42:16.012Z,16.54
2022-08-10T06:45:07.813Z,16.62
2022-08-10T06:48:06.367Z,16.73
2022-08-10T06:50:56.246Z,16.83
2022-08-10T06:53:54.151Z,16.89
2022-08-10T06:56:37.469Z,17.00
2022-08-10T06:59:30.699Z,17.07
2022-08-10T07:02:04.863Z,17.16
2022-08-10T07:04:38.557Z,17.23
2022-08-10T07:07:07.962Z,17.29
2022-08-10T07:09:38.160Z,17.38
2022-08-10T07:12:09.863Z,17.43
2022-08-10T07:14:42.854Z,17.51
2022-08-10T07:17:16.813Z,17.59
2022-08-10T07:19:49.903Z,17.66
2022-08-10T07:23:01.307Z,17.67
2022-08-10T07:25:12.406Z,17.77
2022-08-10T07:28:00.459Z,17.80
2022-08-10T07:30:30.483Z,17.89
2022-08-10T07:32:57.880Z,17.96
2022-08-10T07:35:30.754Z,18.01
2022-08-10T07:38:04.911Z,18.09
2022-08-10T07:40:33.127Z,18.14
2022-08-10T07:43:01.284Z,18.19
2022-08-10T07:45:32.005Z,18.26
2022-08-10T07:48:20.966Z,18.32
2022-08-10T07:50:49.506Z,18.40
2022-08-10T07:53:24.819Z,18.43
2022-08-10T07:56:07.835Z,18.51
2022-08-10T07:58:51.655Z,18.57
2022-08-10T08:01:24.357Z,18.64
2022-08-10T08:04:11.004Z,18.69
2022-08-10T08:06:40.784Z,18.74
2022-08-10T08:09:07.796Z,18.79
2022-08-10T08:11:37.393Z,18.87
2022-08-10T08:14:07.792Z,18.92
2022-08-10T08:16:36.521Z,19.00
2022-08-10T08:24:05.154Z,19.10
2022-08-10T08:24:43.205Z,19.18
2022-08-10T08:27:12.750Z,19.24
2022-08-10T08:29:42.018Z,19.31
2022-08-10T08:32:09.738Z,19.37
2022-08-10T08:34:42.724Z,19.42
2022-08-10T08:37:11.153Z,19.48
2022-08-10T08:39:38.648Z,19.53
2022-08-10T08:42:33.879Z,19.59
2022-08-10T08:45:54.001Z,19.66
2022-08-10T08:49:02.713Z,19.76
2022-08-10T08:52:09.270Z,19.84
2022-08-10T08:54:59.394Z,19.91
2022-08-10T08:57:50.746Z,19.98
2022-08-10T09:00:39.641Z,20.04
2022-08-10T09:03:32.071Z,20.09
2022-08-10T09:06:31.454Z,20.19
2022-08-10T09:09:31.478Z,20.30
2022-08-10T09:12:08.813Z,20.41
2022-08-10T09:14:52.806Z,20.47
2022-08-10T09:17:29.207Z,20.56
2022-08-10T09:27:43.318Z,20.79
2022-08-10T09:37:08.879Z,21.01
2022-08-10T09:40:06.937Z,21.07
2022-08-10T09:42:57.261Z,21.13
2022-08-10T09:45:58.420Z,21.19
2022-08-10T09:48:28.029Z,21.25
2022-08-10T09:54:27.095Z,21.39
2022-08-10T09:56:55.471Z,21.43
2022-08-10T10:00:00.412Z,21.48
2022-08-10T10:02:50.760Z,21.57
2022-08-10T10:05:35.525Z,21.69
2022-08-10T10:08:02.180Z,21.79
2022-08-10T10:11:04.720Z,21.85
2022-08-10T10:14:02.618Z,21.96
2022-08-10T10:16:46.925Z,22.08
2022-08-10T10:19:48.405Z,22.19
2022-08-10T10:22:30.517Z,22.27
2022-08-10T10:25:19.727Z,22.29
2022-08-10T10:28:57.489Z,22.31
2022-08-10T10:31:27.078Z,22.37
2022-08-10T10:34:06.688Z,22.42
2022-08-10T10:36:35.274Z,22.51
2022-08-10T10:39:02.746Z,22.58
2022-08-10T10:41:57.460Z,22.66
2022-08-10T10:44:40.234Z,22.77
2022-08-10T10:47:55.766Z,22.86
2022-08-10T10:50:27.989Z,22.95
2022-08-10T10:53:15.962Z,22.98
2022-08-10T10:56:15.071Z,22.98
2022-08-10T10:59:53.441Z,23.05
2022-08-10T11:02:27.629Z,23.12
2022-08-10T11:05:05.471Z,23.22
2022-08-10T11:07:38.554Z,23.28
2022-08-10T11:10:31.935Z,23.35
2022-08-10T11:14:26.345Z,23.45
2022-08-10T11:16:20.349Z,23.60
2022-08-10T11:19:07.729Z,23.72
2022-08-10T11:21:49.552Z,23.92
2022-08-10T11:24:42.808Z,24.05
2022-08-10T11:27:52.655Z,24.15
2022-08-10T11:30:37.180Z,24.19
2022-08-10T11:33:14.786Z,24.20
2022-08-10T11:36:04.043Z,24.22
2022-08-10T11:39:11.098Z,24.34
2022-08-10T11:42:11.933Z,24.44
2022-08-10T11:44:40.378Z,24.53
2022-08-10T11:47:17.209Z,24.56
2022-08-10T11:49:58.310Z,24.60
2022-08-10T11:52:43.719Z,24.64
2022-08-10T11:55:25.907Z,24.71
2022-08-10T11:58:24.739Z,24.77
2022-08-10T12:00:53.290Z,24.88
2022-08-10T12:03:20.653Z,24.95
2022-08-10T12:05:54.671Z,25.04
2022-08-10T12:10:02.024Z,25.06
2022-08-10T12:11:22.524Z,25.16
2022-08-10T12:14:21.255Z,25.25
2022-08-10T12:17:08.144Z,25.37
2022-08-10T12:19:59.520Z,25.53
2022-08-10T12:22:48.967Z,25.63
2022-08-10T12:25:55.995Z,25.66
2022-08-10T12:28:49.255Z,25.73
2022-08-10T12:31:13.788Z,25.75
2022-08-10T12:34:14.581Z,25.86
2022-08-10T12:36:45.107Z,25.91
2022-08-10T12:39:30.962Z,25.97
2022-08-10T12:42:06.635Z,26.00
2022-08-10T12:44:44.473Z,26.05
2022-08-10T12:47:20.315Z,26.07
2022-08-10T12:50:29.531Z,26.14
2022-08-10T12:53:11.403Z,26.25
2022-08-10T12:55:39.980Z,26.33
2022-08-10T12:58:59.690Z,26.42
2022-08-10T13:01:15.663Z,26.55
2022-08-10T13:04:21.944Z,26.67
2022-08-10T13:06:37.025Z,26.75
2022-08-10T13:09:09.799Z,26.81
2022-08-10T13:12:36.916Z,26.84
2022-08-10T13:14:38.546Z,26.89
2022-08-10T13:17:09.980Z,26.94
2022-08-10T13:19:55.660Z,26.94
2022-08-10T13:22:30.737Z,27.02
2022-08-10T13:25:01.593Z,27.07
2022-08-10T13:27:59.782Z,27.17
2022-08-10T13:30:35.509Z,27.28
2022-08-10T13:33:06.088Z,27.38
2022-08-10T13:35:33.945Z,27.47
2022-08-10T13:38:02.901Z,27.56
2022-08-10T13:40:32.202Z,27.63
2022-08-10T13:43:01.717Z,27.65
2022-08-10T13:45:29.361Z,27.64
2022-08-10T13:48:30.887Z,27.71
2022-08-10T13:50:59.839Z,27.77
2022-08-10T13:53:31.091Z,27.83
2022-08-10T13:55:59.393Z,27.90
2022-08-10T13:58:30.565Z,27.96
2022-08-10T14:01:00.207Z,28.03
2022-08-10T14:03:28.611Z,28.14
2022-08-10T14:05:58.377Z,28.26
2022-08-10T14:08:31.453Z,28.39
2022-08-10T14:11:11.021Z,28.53
2022-08-10T14:13:44.626Z,28.65
2022-08-10T14:16:13.573Z,28.74
2022-08-10T14:18:44.803Z,28.82
2022-08-10T14:21:13.500Z,28.89
2022-08-10T14:23:42.744Z,28.99
2022-08-10T14:26:24.750Z,29.05
2022-08-10T14:28:56.446Z,29.12
2022-08-10T14:31:29.253Z,29.17
2022-08-10T14:34:00.196Z,29.23
2022-08-10T14:36:46.314Z,29.29
2022-08-10T14:39:24.219Z,29.33
2022-08-10T14:42:03.074Z,29.34
2022-08-10T14:45:00.059Z,29.35
2022-08-10T14:47:53.791Z,29.37
2022-08-10T14:50:32.737Z,29.38
2022-08-10T14:53:09.771Z,29.37
2022-08-10T14:55:58.505Z,29.40
2022-08-10T14:58:35.888Z,29.41
2022-08-10T15:01:06.949Z,29.47
2022-08-10T15:04:01.890Z,29.53
2022-08-10T15:06:34.118Z,29.58
2022-08-10T15:09:37.324Z,29.61
2022-08-10T15:12:26.553Z,29.67
2022-08-10T15:14:54.882Z,29.74
2022-08-10T15:17:29.303Z,29.79
2022-08-10T15:20:13.533Z,29.81
2022-08-10T15:22:47.497Z,29.82
2022-08-10T15:25:25.084Z,29.85
2022-08-10T15:28:06.348Z,29.89
2022-08-10T15:30:59.193Z,29.92
2022-08-10T15:33:57.626Z,29.98
2022-08-10T15:37:36.993Z,30.03
2022-08-10T15:40:25.400Z,30.09
2022-08-10T15:42:52.725Z,30.14
2022-08-10T15:45:19.918Z,30.17
2022-08-10T15:48:03.373Z,30.20
2022-08-10T15:50:44.014Z,30.22
2022-08-10T16:06:02.027Z,30.57
2022-08-10T16:08:55.701Z,30.59
2022-08-10T16:11:37.937Z,30.60
2022-08-10T16:14:35.884Z,30.66
2022-08-10T16:17:09.316Z,30.69
2022-08-10T16:19:45.415Z,30.74
2022-08-10T16:22:35.289Z,30.76
2022-08-10T16:25:02.966Z,30.79
2022-08-10T16:27:32.451Z,30.81
2022-08-10T16:30:02.806Z,30.84
2022-08-10T16:32:32.019Z,30.90
2022-08-10T16:35:01.144Z,30.91
2022-08-10T16:37:58.275Z,30.91
2022-08-10T16:40:27.223Z,30.95
2022-08-10T16:42:55.716Z,31.01
2022-08-10T16:45:50.683Z,31.06
2022-08-10T16:48:49.607Z,31.12
2022-08-10T16:51:14.818Z,31.18
2022-08-10T16:53:47.827Z,31.22
2022-08-10T16:56:16.442Z,31.29
2022-08-10T16:58:54.470Z,31.34
2022-08-10T17:01:27.249Z,31.44
2022-08-10T17:04:06.734Z,31.51
2022-08-10T17:06:38.441Z,31.51
2022-08-10T17:09:08.495Z,31.53
2022-08-10T17:11:40.950Z,31.51
2022-08-10T17:14:09.926Z,31.53
2022-08-10T17:16:43.000Z,31.50
2022-08-10T17:19:19.668Z,31.51
2022-08-10T17:21:52.851Z,31.53
2022-08-10T17:24:26.693Z,31.55
2022-08-10T17:26:57.821Z,31.61
2022-08-10T17:29:58.447Z,31.66
2022-08-10T17:32:44.762Z,31.72
2022-08-10T17:35:14.663Z,31.75
2022-08-10T17:38:04.469Z,31.74
2022-08-10T17:40:34.132Z,31.75
2022-08-10T17:43:02.481Z,31.78
2022-08-10T17:45:48.067Z,31.81
2022-08-10T17:48:18.129Z,31.75
2022-08-10T17:50:49.591Z,31.78
2022-08-10T17:53:24.914Z,31.80
2022-08-10T17:55:58.330Z,31.82
2022-08-10T17:58:27.282Z,31.84
2022-08-10T18:01:41.842Z,31.85
2022-08-10T18:03:51.390Z,31.85
2022-08-10T18:06:19.436Z,31.82
2022-08-10T18:08:55.399Z,31.74
2022-08-10T18:11:25.345Z,31.68
2022-08-10T18:14:04.453Z,31.62
2022-08-10T18:16:34.180Z,31.51
2022-08-10T18:19:17.121Z,31.46
2022-08-10T18:21:47.608Z,31.43
2022-08-10T18:24:20.184Z,31.36
2022-08-10T18:26:52.133Z,31.21
2022-08-10T18:29:29.094Z,30.93
2022-08-10T18:32:01.163Z,30.61
2022-08-10T18:34:32.068Z,30.26
2022-08-10T18:37:00.098Z,29.98
2022-08-10T18:39:36.404Z,29.76
2022-08-10T18:42:19.859Z,29.58
2022-08-10T18:45:00.347Z,29.42
2022-08-10T18:47:59.304Z,29.25
2022-08-10T18:50:31.314Z,29.11
2022-08-10T18:53:09.754Z,29.00
2022-08-10T18:56:09.743Z,28.88
2022-08-10T18:59:02.548Z,28.74
2022-08-10T19:01:53.784Z,28.67
2022-08-10T19:04:23.775Z,28.57
2022-08-10T19:07:13.639Z,28.44
2022-08-10T19:09:47.350Z,28.38
2022-08-10T19:12:43.303Z,28.26
2022-08-10T19:15:35.946Z,28.10
2022-08-10T19:18:13.898Z,28.02
2022-08-10T19:20:40.630Z,27.75
2022-08-10T19:23:22.544Z,27.72
2022-08-10T19:26:41.015Z,27.63
2022-08-10T19:28:47.238Z,27.52
2022-08-10T19:31:47.902Z,27.36
2022-08-10T19:34:51.617Z,27.26
2022-08-10T19:37:35.099Z,27.15
2022-08-10T19:40:18.342Z,27.04
2022-08-10T19:42:54.925Z,26.96
2022-08-10T19:45:55.855Z,26.89
2022-08-10T19:48:28.320Z,26.76
2022-08-10T19:51:08.161Z,26.74
2022-08-10T19:53:51.048Z,26.69
2022-08-10T19:56:35.019Z,26.62
2022-08-10T19:59:10.516Z,26.53
2022-08-10T20:01:54.439Z,26.46
2022-08-10T20:04:33.244Z,26.36
2022-08-10T20:07:18.932Z,26.27
2022-08-10T20:10:11.725Z,26.19
2022-08-10T20:12:58.243Z,26.14
2022-08-10T20:15:41.955Z,26.09
2022-08-10T20:18:33.403Z,26.01
2022-08-10T20:21:26.538Z,25.95
2022-08-10T20:24:01.495Z,25.91
2022-08-10T20:26:33.226Z,25.85
2022-08-10T20:29:16.395Z,25.76
2022-08-10T20:32:12.843Z,25.69
2022-08-10T20:34:48.133Z,25.62
2022-08-10T20:37:46.868Z,25.57
2022-08-10T20:40:29.797Z,25.51
2022-08-10T20:43:17.024Z,25.42
2022-08-10T20:46:08.885Z,25.36
2022-08-10T20:48:43.873Z,25.28
2022-08-10T20:51:19.541Z,25.20
2022-08-10T20:53:53.910Z,25.16
2022-08-10T20:56:26.799Z,25.07
2022-08-10T20:59:18.378Z,24.97
2022-08-10T21:02:01.541Z,24.90
2022-08-10T21:05:11.848Z,24.86
2022-08-10T21:08:02.384Z,24.78
2022-08-10T21:10:56.638Z,24.70
2022-08-10T21:13:32.408Z,24.69
2022-08-10T21:16:20.378Z,24.58
2022-08-10T21:19:07.999Z,24.53
2022-08-10T21:22:13.212Z,24.50
2022-08-10T21:24:57.708Z,24.42
2022-08-10T21:27:59.900Z,24.32
2022-08-10T21:30:59.499Z,24.28
2022-08-10T21:33:35.156Z,24.28
2022-08-10T21:36:23.725Z,24.22
2022-08-10T21:39:13.816Z,24.21
2022-08-10T21:42:30.596Z,24.13
2022-08-10T21:45:58.039Z,24.06
2022-08-10T21:49:06.397Z,23.94
2022-08-10T21:52:01.966Z,23.86
2022-08-10T21:55:00.857Z,23.79
2022-08-10T21:58:00.570Z,23.72
2022-08-10T22:00:46.559Z,23.65
2022-08-10T22:03:39.982Z,23.58
2022-08-10T22:06:28.343Z,23.48
2022-08-10T22:09:22.165Z,23.39
2022-08-10T22:12:31.052Z,23.31
2022-08-10T22:16:03.536Z,23.22
2022-08-10T22:19:01.313Z,23.11
2022-08-10T22:22:28.210Z,23.03
2022-08-10T22:26:00.249Z,22.92
2022-08-10T22:28:48.802Z,22.87
2022-08-10T22:31:37.195Z,22.81
2022-08-10T22:34:57.668Z,22.76
2022-08-10T22:38:11.793Z,22.79
2022-08-10T22:41:02.957Z,22.90
2022-08-10T22:43:51.057Z,22.98
2022-08-10T22:46:44.285Z,23.00
2022-08-10T22:49:11.783Z,23.07
2022-08-10T22:51:49.211Z,23.07
2022-08-10T22:54:42.125Z,23.00
2022-08-10T22:57:35.070Z,22.94
2022-08-10T23:00:14.509Z,22.87
2022-08-10T23:02:50.650Z,22.87
2022-08-10T23:05:29.622Z,22.82
2022-08-10T23:08:03.092Z,22.81
2022-08-10T23:10:37.527Z,22.82
2022-08-10T23:13:14.239Z,22.80
2022-08-10T23:16:24.758Z,22.82
2022-08-10T23:19:11.102Z,22.76
2022-08-10T23:21:47.818Z,22.73
2022-08-10T23:24:34.436Z,22.68
2022-08-10T23:27:12.501Z,22.64
2022-08-10T23:30:03.631Z,22.61
2022-08-10T23:32:32.310Z,22.54
2022-08-10T23:36:31.498Z,22.50
2022-08-10T23:37:49.366Z,22.45
2022-08-10T23:40:18.851Z,22.45
2022-08-10T23:42:53.399Z,22.44
2022-08-10T23:45:27.839Z,22.41
2022-08-10T23:47:59.092Z,22.38
2022-08-10T23:50:29.177Z,22.34
2022-08-10T23:53:01.732Z,22.29
2022-08-10T23:55:49.501Z,22.28
2022-08-10T23:58:31.902Z,22.24
